createdAt,value
2018-11-14T00:03:14.199Z,"    0"
2018-11-14T00:08:09.934Z,"    0"
2018-11-14T00:13:05.446Z,"    0"
2018-11-14T00:18:01.258Z,"    0"
2018-11-14T00:22:57.584Z,"    0"
2018-11-14T00:27:54.100Z,"    0"
2018-11-14T00:32:51.047Z,"    0"
2018-11-14T00:37:46.612Z,"    0"
2018-11-14T00:42:42.375Z,"    0"
2018-11-14T00:47:38.012Z,"    0"
2018-11-14T00:52:33.740Z,"    0"
2018-11-14T00:57:29.360Z,"    0"
2018-11-14T01:02:24.927Z,"    0"
2018-11-14T01:07:20.529Z,"    0"
2018-11-14T01:12:16.226Z,"    0"
2018-11-14T01:17:11.997Z,"    0"
2018-11-14T01:22:08.661Z,"    0"
2018-11-14T01:27:05.248Z,"    0"
2018-11-14T01:32:00.421Z,"    0"
2018-11-14T01:36:56.256Z,"    0"
2018-11-14T01:41:51.944Z,"    0"
2018-11-14T01:46:47.317Z,"    0"
2018-11-14T01:51:43.948Z,"    0"
2018-11-14T01:56:39.667Z,"    0"
2018-11-14T02:01:36.544Z,"    0"
2018-11-14T02:06:31.931Z,"    0"
2018-11-14T02:11:27.809Z,"    0"
2018-11-14T02:16:23.260Z,"    0"
2018-11-14T02:21:19.027Z,"    0"
2018-11-14T02:26:16.112Z,"    0"
2018-11-14T02:31:11.576Z,"    0"
2018-11-14T02:36:08.246Z,"    0"
2018-11-14T02:41:03.655Z,"    0"
2018-11-14T02:45:59.434Z,"    0"
2018-11-14T02:50:56.241Z,"    0"
2018-11-14T02:55:51.817Z,"    0"
2018-11-14T03:00:48.511Z,"    0"
2018-11-14T03:05:44.824Z,"    0"
2018-11-14T03:10:40.053Z,"    0"
2018-11-14T03:15:35.841Z,"    0"
2018-11-14T03:20:31.462Z,"    0"
2018-11-14T03:25:27.145Z,"    0"
2018-11-14T03:30:22.876Z,"    0"
2018-11-14T03:35:18.948Z,"    0"
2018-11-14T03:40:14.684Z,"    0"
2018-11-14T03:45:11.483Z,"    0"
2018-11-14T03:50:06.943Z,"    0"
2018-11-14T03:55:02.617Z,"    0"
2018-11-14T03:59:58.352Z,"    0"
2018-11-14T04:04:55.054Z,"    0"
2018-11-14T04:09:50.555Z,"    0"
2018-11-14T04:14:46.416Z,"    0"
2018-11-14T04:19:43.106Z,"    0"
2018-11-14T04:24:38.389Z,"    0"
2018-11-14T04:29:35.734Z,"    0"
2018-11-14T04:34:32.224Z,"    0"
2018-11-14T04:39:28.232Z,"    0"
2018-11-14T04:44:23.963Z,"    0"
2018-11-14T04:49:19.620Z,"    0"
2018-11-14T04:54:17.019Z,"    0"
2018-11-14T04:59:12.541Z,"    0"
2018-11-14T05:04:09.250Z,"    0"
2018-11-14T05:09:04.710Z,"    0"
2018-11-14T05:14:00.318Z,"    0"
2018-11-14T05:18:55.971Z,"    0"
2018-11-14T05:23:51.576Z,"    0"
2018-11-14T05:28:47.551Z,"    0"
2018-11-14T05:33:43.329Z,"    0"
2018-11-14T05:38:39.081Z,"    0"
2018-11-14T05:43:34.716Z,"    0"
2018-11-14T05:48:30.534Z,"    0"
2018-11-14T05:53:26.275Z,"    0"
2018-11-14T05:58:22.127Z,"    0"
2018-11-14T06:03:17.963Z,"    0"
2018-11-14T06:08:13.545Z,"    0"
2018-11-14T06:13:09.293Z,"    4"
2018-11-14T06:18:05.124Z,"    4"
2018-11-14T06:23:01.857Z,"   12"
2018-11-14T06:27:57.143Z,"   20"
2018-11-14T06:32:52.881Z,"   36"
2018-11-14T06:37:49.136Z,"   72"
2018-11-14T06:42:45.714Z,"  120"
2018-11-14T06:47:42.781Z,"  184"
2018-11-14T06:52:38.021Z,"  260"
2018-11-14T06:57:33.798Z,"  364"
2018-11-14T07:02:30.414Z,"  484"
2018-11-14T07:07:26.868Z,"  592"
2018-11-14T07:12:22.869Z,"  700"
2018-11-14T07:17:18.483Z,"  820"
2018-11-14T07:22:14.569Z,"  932"
2018-11-14T07:27:10.126Z," 1032"
2018-11-14T07:32:07.008Z," 1136"
2018-11-14T07:37:02.603Z," 1252"
2018-11-14T07:41:58.367Z," 1320"
2018-11-14T07:46:54.059Z," 1464"
2018-11-14T07:51:49.616Z," 1632"
2018-11-14T07:56:45.488Z," 1748"
2018-11-14T08:01:41.362Z," 1880"
2018-11-14T08:06:37.256Z," 1988"
2018-11-14T08:11:33.539Z," 1992"
2018-11-14T08:16:29.306Z," 2060"
2018-11-14T08:21:26.543Z," 2108"
2018-11-14T08:26:22.280Z," 2176"
2018-11-14T08:31:17.879Z," 2268"
2018-11-14T08:36:13.832Z," 2476"
2018-11-14T08:41:09.591Z," 2516"
2018-11-14T08:46:05.300Z," 2600"
2018-11-14T08:51:01.302Z," 2676"
2018-11-14T08:55:57.166Z," 2740"
2018-11-14T09:00:53.046Z," 3104"
2018-11-14T09:05:49.205Z," 3220"
2018-11-14T09:10:45.212Z," 2928"
2018-11-14T09:15:40.996Z," 3468"
2018-11-14T09:20:37.058Z," 5796"
2018-11-14T09:25:33.329Z," 4716"
2018-11-14T09:30:29.460Z," 3868"
2018-11-14T09:35:25.212Z," 3084"
2018-11-14T09:40:20.939Z," 2972"
2018-11-14T09:45:16.747Z," 2992"
2018-11-14T09:50:12.927Z," 4056"
2018-11-14T09:55:08.938Z," 4800"
2018-11-14T10:00:05.005Z," 4828"
2018-11-14T10:05:00.998Z," 3972"
2018-11-14T10:09:57.840Z," 5172"
2018-11-14T10:14:53.717Z," 4076"
2018-11-14T10:19:49.412Z," 4372"
2018-11-14T10:24:45.420Z," 5240"
2018-11-14T10:29:41.356Z," 4316"
2018-11-14T10:34:37.310Z," 9036"
2018-11-14T10:39:33.260Z,11292
2018-11-14T10:44:29.819Z,10520
2018-11-14T10:49:25.637Z,12176
2018-11-14T10:54:21.959Z,10876
2018-11-14T10:59:17.841Z," 8076"
2018-11-14T11:04:14.160Z," 8752"
2018-11-14T11:09:11.432Z,11076
2018-11-14T11:14:06.853Z," 8128"
2018-11-14T11:19:03.020Z,11372
2018-11-14T11:23:59.701Z," 8484"
2018-11-14T11:28:56.115Z," 7776"
2018-11-14T11:33:53.087Z," 9640"
2018-11-14T11:38:48.558Z," 6156"
2018-11-14T11:43:45.110Z," 8148"
2018-11-14T11:48:40.859Z," 7700"
2018-11-14T11:53:36.671Z," 5868"
2018-11-14T11:58:32.347Z," 4096"
2018-11-14T12:03:28.041Z," 4196"
2018-11-14T12:08:24.707Z," 4112"
2018-11-14T12:13:20.347Z," 4520"
2018-11-14T12:18:17.774Z," 3660"
2018-11-14T12:23:13.171Z," 3452"
2018-11-14T12:28:09.971Z," 3516"
2018-11-14T12:33:06.409Z," 3432"
2018-11-14T12:38:02.889Z," 3320"
2018-11-14T12:42:58.432Z," 3072"
2018-11-14T12:47:54.325Z," 2940"
2018-11-14T12:52:50.325Z," 2860"
2018-11-14T12:57:47.201Z," 2656"
2018-11-14T13:02:42.452Z," 2596"
2018-11-14T13:07:38.642Z," 2480"
2018-11-14T13:12:35.864Z," 2432"
2018-11-14T13:17:31.374Z," 2396"
2018-11-14T13:22:27.162Z," 2532"
2018-11-14T13:27:22.972Z," 2612"
2018-11-14T13:32:20.858Z," 2524"
2018-11-14T13:37:16.355Z," 2892"
2018-11-14T13:42:11.858Z," 2860"
2018-11-14T13:47:07.751Z," 2512"
2018-11-14T13:52:03.705Z," 2168"
2018-11-14T13:57:00.404Z," 2168"
2018-11-14T14:01:56.030Z," 2148"
2018-11-14T14:06:52.111Z," 2052"
2018-11-14T14:11:48.036Z," 1968"
2018-11-14T14:16:44.848Z," 1816"
2018-11-14T14:21:41.320Z," 1672"
2018-11-14T14:26:37.914Z," 1520"
2018-11-14T14:31:34.091Z," 1432"
2018-11-14T14:36:31.196Z," 1348"
2018-11-14T14:41:28.533Z," 1240"
2018-11-14T14:46:25.056Z," 1132"
2018-11-14T14:51:19.933Z," 1028"
2018-11-14T14:56:15.996Z,"  896"
2018-11-14T15:01:11.811Z,"  780"
2018-11-14T15:06:07.435Z,"  664"
2018-11-14T15:11:04.101Z,"  552"
2018-11-14T15:16:00.371Z,"  444"
2018-11-14T15:20:55.983Z,"  348"
2018-11-14T15:25:51.530Z,"  264"
2018-11-14T15:30:47.221Z,"  200"
2018-11-14T15:35:43.487Z,"  152"
2018-11-14T15:40:40.263Z,"  116"
2018-11-14T15:45:35.614Z,"   80"
2018-11-14T15:50:31.147Z,"   56"
2018-11-14T15:55:26.811Z,"   28"
2018-11-14T16:00:22.521Z,"   12"
2018-11-14T16:05:18.258Z,"    4"
2018-11-14T16:10:13.931Z,"    0"
2018-11-14T16:15:09.384Z,"    0"
2018-11-14T16:20:05.674Z,"    0"
2018-11-14T16:25:01.744Z,"    0"
2018-11-14T16:29:57.529Z,"    0"
2018-11-14T16:34:53.245Z,"    0"
2018-11-14T16:39:48.940Z,"    0"
2018-11-14T16:44:44.622Z,"    0"
2018-11-14T16:49:40.349Z,"    0"
2018-11-14T16:54:36.105Z,"    0"
2018-11-14T16:59:31.824Z,"    0"
2018-11-14T17:04:28.428Z,"    0"
2018-11-14T17:09:24.755Z,"    0"
2018-11-14T17:14:20.282Z,"    0"
2018-11-14T17:19:15.836Z,"    0"
2018-11-14T17:24:11.553Z,"    0"
2018-11-14T17:29:08.307Z,"    0"
2018-11-14T17:34:04.670Z,"    0"
2018-11-14T17:39:00.048Z,"    0"
2018-11-14T17:43:56.372Z,"    0"
2018-11-14T17:48:52.340Z,"    0"
2018-11-14T17:53:48.026Z,"    0"
2018-11-14T17:58:44.641Z,"    0"
2018-11-14T18:03:39.985Z,"    0"
2018-11-14T18:08:35.645Z,"    0"
2018-11-14T18:13:32.338Z,"    0"
2018-11-14T18:18:27.677Z,"    0"
2018-11-14T18:23:23.606Z,"    0"
2018-11-14T18:28:19.309Z,"    0"
2018-11-14T18:33:15.086Z,"    0"
2018-11-14T18:38:10.870Z,"    0"
2018-11-14T18:43:06.479Z,"    0"
2018-11-14T18:48:02.168Z,"    0"
2018-11-14T18:52:57.942Z,"    0"
2018-11-14T18:57:53.307Z,"    0"
2018-11-14T19:02:49.221Z,"    0"
2018-11-14T19:07:44.993Z,"    0"
2018-11-14T19:12:40.942Z,"    0"
2018-11-14T19:17:37.605Z,"    0"
2018-11-14T19:22:34.209Z,"    0"
2018-11-14T19:27:29.976Z,"    0"
2018-11-14T19:32:25.542Z,"    0"
2018-11-14T19:37:21.262Z,"    0"
2018-11-14T19:42:18.026Z,"    0"
2018-11-14T19:47:13.426Z,"    0"
2018-11-14T19:52:09.033Z,"    0"
2018-11-14T19:57:04.991Z,"    0"
2018-11-14T20:02:00.633Z,"    0"
2018-11-14T20:06:56.479Z,"    0"
2018-11-14T20:11:53.212Z,"    0"
2018-11-14T20:16:49.619Z,"    0"
2018-11-14T20:21:45.116Z,"    0"
2018-11-14T20:26:41.068Z,"    0"
2018-11-14T20:31:36.902Z,"    0"
2018-11-14T20:36:32.791Z,"    0"
2018-11-14T20:41:28.343Z,"    0"
2018-11-14T20:46:24.002Z,"    0"
2018-11-14T20:51:19.369Z,"    0"
2018-11-14T20:56:14.702Z,"    0"
2018-11-14T21:01:10.866Z,"    0"
2018-11-14T21:06:06.405Z,"    0"
2018-11-14T21:11:02.033Z,"    0"
2018-11-14T21:15:58.390Z,"    0"
2018-11-14T21:20:54.731Z,"    0"
2018-11-14T21:25:50.096Z,"    0"
2018-11-14T21:30:45.815Z,"    0"
2018-11-14T21:35:41.368Z,"    0"
2018-11-14T21:40:38.913Z,"    0"
2018-11-14T21:45:34.281Z,"    0"
2018-11-14T21:50:29.904Z,"    0"
2018-11-14T21:55:26.102Z,"    0"
2018-11-14T22:00:21.866Z,"    0"
2018-11-14T22:05:18.543Z,"    0"
2018-11-14T22:10:15.019Z,"    0"
2018-11-14T22:15:10.148Z,"    0"
2018-11-14T22:20:06.789Z,"    0"
2018-11-14T22:25:02.438Z,"    0"
2018-11-14T22:29:59.806Z,"    0"
2018-11-14T22:34:55.254Z,"    0"
2018-11-14T22:39:51.205Z,"    0"
2018-11-14T22:44:47.635Z,"    0"
2018-11-14T22:49:43.284Z,"    0"
2018-11-14T22:54:39.924Z,"    0"
2018-11-14T22:59:35.866Z,"    0"
2018-11-14T23:04:31.596Z,"    0"
2018-11-14T23:09:27.250Z,"    0"
2018-11-14T23:14:24.047Z,"    0"
2018-11-14T23:19:20.034Z,"    0"
2018-11-14T23:24:16.875Z,"    0"
2018-11-14T23:29:13.109Z,"    0"
2018-11-14T23:34:08.375Z,"    0"
2018-11-14T23:39:03.870Z,"    0"
2018-11-14T23:44:00.987Z,"    0"
2018-11-14T23:48:56.400Z,"    0"
2018-11-14T23:53:52.803Z,"    0"
2018-11-14T23:58:48.173Z,"    0"
